sensor_id;sensor_type;location;lat;lon;timestamp;P1;durP1;ratioP1;P2;durP2;ratioP2
21501;SDS011;27639;48.674;9.242;2023-12-28T00:00:25;10.07;;;6.25;;
21501;SDS011;27639;48.674;9.242;2023-12-28T00:02:50;10.75;;;6.82;;
21501;SDS011;27639;48.674;9.242;2023-12-28T00:05:16;9.95;;;7.03;;
21501;SDS011;27639;48.674;9.242;2023-12-28T00:07:42;9.02;;;6.18;;
21501;SDS011;27639;48.674;9.242;2023-12-28T00:10:07;9.90;;;6.45;;
21501;SDS011;27639;48.674;9.242;2023-12-28T00:12:33;10.57;;;6.40;;
21501;SDS011;27639;48.674;9.242;2023-12-28T00:14:59;10.13;;;6.25;;
21501;SDS011;27639;48.674;9.242;2023-12-28T00:17:24;10.13;;;6.10;;
21501;SDS011;27639;48.674;9.242;2023-12-28T00:19:50;10.48;;;6.07;;
21501;SDS011;27639;48.674;9.242;2023-12-28T00:22:16;10.23;;;5.95;;
21501;SDS011;27639;48.674;9.242;2023-12-28T00:24:41;10.65;;;6.47;;
21501;SDS011;27639;48.674;9.242;2023-12-28T00:27:07;10.52;;;5.40;;
21501;SDS011;27639;48.674;9.242;2023-12-28T00:29:32;8.20;;;5.60;;
21501;SDS011;27639;48.674;9.242;2023-12-28T00:31:59;9.32;;;4.90;;
21501;SDS011;27639;48.674;9.242;2023-12-28T00:34:25;8.52;;;5.22;;
21501;SDS011;27639;48.674;9.242;2023-12-28T00:36:50;9.15;;;5.50;;
21501;SDS011;27639;48.674;9.242;2023-12-28T00:39:16;7.55;;;4.75;;
21501;SDS011;27639;48.674;9.242;2023-12-28T00:41:41;8.50;;;5.32;;
21501;SDS011;27639;48.674;9.242;2023-12-28T00:44:07;8.48;;;5.30;;
21501;SDS011;27639;48.674;9.242;2023-12-28T00:46:34;7.80;;;5.25;;
21501;SDS011;27639;48.674;9.242;2023-12-28T00:49:00;7.40;;;5.30;;
21501;SDS011;27639;48.674;9.242;2023-12-28T00:51:26;8.18;;;5.57;;
21501;SDS011;27639;48.674;9.242;2023-12-28T00:53:51;9.18;;;5.65;;
21501;SDS011;27639;48.674;9.242;2023-12-28T00:56:17;8.38;;;5.72;;
21501;SDS011;27639;48.674;9.242;2023-12-28T00:58:45;9.95;;;5.78;;
21501;SDS011;27639;48.674;9.242;2023-12-28T01:01:11;9.82;;;5.43;;
21501;SDS011;27639;48.674;9.242;2023-12-28T01:03:36;7.88;;;5.10;;
21501;SDS011;27639;48.674;9.242;2023-12-28T01:06:02;12.05;;;6.07;;
21501;SDS011;27639;48.674;9.242;2023-12-28T01:08:29;7.88;;;5.72;;
21501;SDS011;27639;48.674;9.242;2023-12-28T01:10:54;9.38;;;5.80;;
21501;SDS011;27639;48.674;9.242;2023-12-28T01:13:20;8.90;;;5.40;;
21501;SDS011;27639;48.674;9.242;2023-12-28T01:15:45;8.10;;;5.38;;
21501;SDS011;27639;48.674;9.242;2023-12-28T01:18:11;8.80;;;5.50;;
21501;SDS011;27639;48.674;9.242;2023-12-28T01:20:37;9.05;;;5.07;;
21501;SDS011;27639;48.674;9.242;2023-12-28T01:23:02;7.20;;;5.00;;
21501;SDS011;27639;48.674;9.242;2023-12-28T01:25:28;7.88;;;5.35;;
21501;SDS011;27639;48.674;9.242;2023-12-28T01:27:53;9.70;;;6.05;;
21501;SDS011;27639;48.674;9.242;2023-12-28T01:30:19;9.68;;;5.70;;
21501;SDS011;27639;48.674;9.242;2023-12-28T01:32:45;9.68;;;5.65;;
21501;SDS011;27639;48.674;9.242;2023-12-28T01:35:10;9.75;;;5.85;;
21501;SDS011;27639;48.674;9.242;2023-12-28T01:37:36;10.35;;;5.68;;
21501;SDS011;27639;48.674;9.242;2023-12-28T01:40:01;8.60;;;5.38;;
21501;SDS011;27639;48.674;9.242;2023-12-28T01:42:27;8.63;;;5.43;;
21501;SDS011;27639;48.674;9.242;2023-12-28T01:44:55;8.88;;;5.72;;
21501;SDS011;27639;48.674;9.242;2023-12-28T01:47:21;8.65;;;5.20;;
21501;SDS011;27639;48.674;9.242;2023-12-28T01:49:47;8.98;;;5.53;;
21501;SDS011;27639;48.674;9.242;2023-12-28T01:52:12;9.18;;;5.63;;
21501;SDS011;27639;48.674;9.242;2023-12-28T01:54:38;7.85;;;4.95;;
21501;SDS011;27639;48.674;9.242;2023-12-28T01:57:04;9.48;;;6.45;;
21501;SDS011;27639;48.674;9.242;2023-12-28T01:59:30;8.20;;;5.93;;
21501;SDS011;27639;48.674;9.242;2023-12-28T02:01:56;9.63;;;5.88;;
21501;SDS011;27639;48.674;9.242;2023-12-28T02:04:23;8.55;;;5.97;;
21501;SDS011;27639;48.674;9.242;2023-12-28T02:06:56;8.85;;;5.95;;
21501;SDS011;27639;48.674;9.242;2023-12-28T02:09:23;9.43;;;6.13;;
21501;SDS011;27639;48.674;9.242;2023-12-28T02:11:49;9.25;;;6.50;;
21501;SDS011;27639;48.674;9.242;2023-12-28T02:14:14;8.48;;;5.95;;
21501;SDS011;27639;48.674;9.242;2023-12-28T02:16:51;8.68;;;6.18;;
21501;SDS011;27639;48.674;9.242;2023-12-28T02:27:39;6.20;;;4.57;;
21501;SDS011;27639;48.674;9.242;2023-12-28T02:30:06;9.45;;;5.88;;
21501;SDS011;27639;48.674;9.242;2023-12-28T02:32:42;9.82;;;6.78;;
21501;SDS011;27639;48.674;9.242;2023-12-28T02:35:33;9.23;;;6.25;;
21501;SDS011;27639;48.674;9.242;2023-12-28T02:38:06;9.85;;;6.60;;
21501;SDS011;27639;48.674;9.242;2023-12-28T02:40:36;10.60;;;6.78;;
21501;SDS011;27639;48.674;9.242;2023-12-28T02:43:06;9.70;;;6.68;;
21501;SDS011;27639;48.674;9.242;2023-12-28T02:45:32;10.82;;;6.75;;
21501;SDS011;27639;48.674;9.242;2023-12-28T02:47:58;10.50;;;6.47;;
21501;SDS011;27639;48.674;9.242;2023-12-28T02:50:24;10.70;;;6.38;;
21501;SDS011;27639;48.674;9.242;2023-12-28T02:52:49;13.52;;;7.43;;
21501;SDS011;27639;48.674;9.242;2023-12-28T02:55:15;8.55;;;6.03;;
21501;SDS011;27639;48.674;9.242;2023-12-28T02:57:40;9.02;;;6.22;;
21501;SDS011;27639;48.674;9.242;2023-12-28T03:00:08;10.18;;;6.45;;
21501;SDS011;27639;48.674;9.242;2023-12-28T03:02:35;9.35;;;6.30;;
21501;SDS011;27639;48.674;9.242;2023-12-28T03:05:02;8.95;;;6.18;;
21501;SDS011;27639;48.674;9.242;2023-12-28T03:07:28;9.30;;;5.43;;
21501;SDS011;27639;48.674;9.242;2023-12-28T03:09:54;6.28;;;3.90;;
21501;SDS011;27639;48.674;9.242;2023-12-28T03:12:20;8.57;;;4.82;;
21501;SDS011;27639;48.674;9.242;2023-12-28T03:14:45;4.00;;;2.30;;
21501;SDS011;27639;48.674;9.242;2023-12-28T03:17:11;3.50;;;1.73;;
21501;SDS011;27639;48.674;9.242;2023-12-28T03:19:37;3.42;;;1.60;;
21501;SDS011;27639;48.674;9.242;2023-12-28T03:22:02;4.78;;;2.50;;
21501;SDS011;27639;48.674;9.242;2023-12-28T03:24:28;3.72;;;1.85;;
21501;SDS011;27639;48.674;9.242;2023-12-28T03:26:54;3.65;;;1.95;;
21501;SDS011;27639;48.674;9.242;2023-12-28T03:29:19;3.42;;;1.92;;
21501;SDS011;27639;48.674;9.242;2023-12-28T03:31:45;3.38;;;1.67;;
21501;SDS011;27639;48.674;9.242;2023-12-28T03:34:11;3.10;;;1.50;;
21501;SDS011;27639;48.674;9.242;2023-12-28T03:36:36;3.88;;;1.58;;
21501;SDS011;27639;48.674;9.242;2023-12-28T03:39:02;2.50;;;1.40;;
21501;SDS011;27639;48.674;9.242;2023-12-28T03:41:31;4.72;;;1.50;;
21501;SDS011;27639;48.674;9.242;2023-12-28T03:43:57;3.10;;;1.70;;
21501;SDS011;27639;48.674;9.242;2023-12-28T03:46:22;3.55;;;1.60;;
21501;SDS011;27639;48.674;9.242;2023-12-28T03:48:48;2.70;;;1.35;;
21501;SDS011;27639;48.674;9.242;2023-12-28T03:51:14;3.97;;;1.50;;
21501;SDS011;27639;48.674;9.242;2023-12-28T03:53:40;4.50;;;1.58;;
21501;SDS011;27639;48.674;9.242;2023-12-28T03:56:06;3.25;;;1.42;;
21501;SDS011;27639;48.674;9.242;2023-12-28T03:58:32;3.38;;;1.80;;
21501;SDS011;27639;48.674;9.242;2023-12-28T04:00:57;4.38;;;1.50;;
21501;SDS011;27639;48.674;9.242;2023-12-28T04:03:23;2.90;;;1.48;;
21501;SDS011;27639;48.674;9.242;2023-12-28T04:05:50;4.15;;;1.50;;
21501;SDS011;27639;48.674;9.242;2023-12-28T04:08:16;3.20;;;1.55;;
21501;SDS011;27639;48.674;9.242;2023-12-28T04:10:41;4.68;;;1.40;;
21501;SDS011;27639;48.674;9.242;2023-12-28T04:13:07;3.08;;;1.50;;
21501;SDS011;27639;48.674;9.242;2023-12-28T04:15:32;3.42;;;1.45;;
21501;SDS011;27639;48.674;9.242;2023-12-28T04:17:58;2.85;;;1.52;;
21501;SDS011;27639;48.674;9.242;2023-12-28T04:20:24;3.20;;;1.63;;
21501;SDS011;27639;48.674;9.242;2023-12-28T04:22:50;4.30;;;1.42;;
21501;SDS011;27639;48.674;9.242;2023-12-28T04:25:15;3.47;;;1.65;;
21501;SDS011;27639;48.674;9.242;2023-12-28T04:27:41;3.47;;;1.40;;
21501;SDS011;27639;48.674;9.242;2023-12-28T04:30:07;3.78;;;1.50;;
21501;SDS011;27639;48.674;9.242;2023-12-28T04:32:33;2.90;;;1.40;;
21501;SDS011;27639;48.674;9.242;2023-12-28T04:34:58;2.60;;;1.20;;
21501;SDS011;27639;48.674;9.242;2023-12-28T04:37:24;2.78;;;1.40;;
21501;SDS011;27639;48.674;9.242;2023-12-28T04:39:51;2.83;;;1.50;;
21501;SDS011;27639;48.674;9.242;2023-12-28T04:42:18;4.22;;;1.27;;
21501;SDS011;27639;48.674;9.242;2023-12-28T04:44:44;3.67;;;1.50;;
21501;SDS011;27639;48.674;9.242;2023-12-28T04:47:09;3.45;;;1.58;;
21501;SDS011;27639;48.674;9.242;2023-12-28T04:49:35;2.60;;;1.35;;
21501;SDS011;27639;48.674;9.242;2023-12-28T04:52:00;3.58;;;1.45;;
21501;SDS011;27639;48.674;9.242;2023-12-28T04:54:26;3.60;;;1.42;;
21501;SDS011;27639;48.674;9.242;2023-12-28T04:56:52;3.65;;;1.35;;
21501;SDS011;27639;48.674;9.242;2023-12-28T04:59:18;4.25;;;1.40;;
21501;SDS011;27639;48.674;9.242;2023-12-28T05:01:43;3.85;;;1.38;;
21501;SDS011;27639;48.674;9.242;2023-12-28T05:04:09;3.15;;;1.35;;
21501;SDS011;27639;48.674;9.242;2023-12-28T05:06:35;3.33;;;1.42;;
21501;SDS011;27639;48.674;9.242;2023-12-28T05:09:01;3.08;;;1.48;;
21501;SDS011;27639;48.674;9.242;2023-12-28T05:11:27;4.55;;;1.40;;
21501;SDS011;27639;48.674;9.242;2023-12-28T05:13:52;3.90;;;1.20;;
21501;SDS011;27639;48.674;9.242;2023-12-28T05:16:18;3.25;;;1.30;;
21501;SDS011;27639;48.674;9.242;2023-12-28T05:18:45;3.00;;;1.30;;
21501;SDS011;27639;48.674;9.242;2023-12-28T05:21:13;2.92;;;1.30;;
21501;SDS011;27639;48.674;9.242;2023-12-28T05:23:39;3.20;;;1.60;;
21501;SDS011;27639;48.674;9.242;2023-12-28T05:26:05;2.65;;;1.25;;
21501;SDS011;27639;48.674;9.242;2023-12-28T05:28:31;3.63;;;1.50;;
21501;SDS011;27639;48.674;9.242;2023-12-28T05:30:57;3.47;;;1.60;;
21501;SDS011;27639;48.674;9.242;2023-12-28T05:33:24;4.60;;;1.85;;
21501;SDS011;27639;48.674;9.242;2023-12-28T05:35:50;3.75;;;1.80;;
21501;SDS011;27639;48.674;9.242;2023-12-28T05:38:15;2.92;;;1.45;;
21501;SDS011;27639;48.674;9.242;2023-12-28T05:40:41;3.67;;;1.70;;
21501;SDS011;27639;48.674;9.242;2023-12-28T05:43:08;3.42;;;1.40;;
21501;SDS011;27639;48.674;9.242;2023-12-28T05:45:33;3.65;;;1.70;;
21501;SDS011;27639;48.674;9.242;2023-12-28T05:47:59;2.90;;;1.38;;
21501;SDS011;27639;48.674;9.242;2023-12-28T05:50:24;3.28;;;1.35;;
21501;SDS011;27639;48.674;9.242;2023-12-28T05:52:50;3.08;;;1.35;;
21501;SDS011;27639;48.674;9.242;2023-12-28T05:55:15;3.85;;;1.30;;
21501;SDS011;27639;48.674;9.242;2023-12-28T05:57:41;3.72;;;1.55;;
21501;SDS011;27639;48.674;9.242;2023-12-28T06:00:09;2.90;;;1.20;;
21501;SDS011;27639;48.674;9.242;2023-12-28T06:02:36;4.07;;;1.30;;
21501;SDS011;27639;48.674;9.242;2023-12-28T06:05:01;2.80;;;1.38;;
21501;SDS011;27639;48.674;9.242;2023-12-28T06:07:27;3.33;;;1.35;;
21501;SDS011;27639;48.674;9.242;2023-12-28T06:09:52;3.35;;;1.23;;
21501;SDS011;27639;48.674;9.242;2023-12-28T06:12:18;2.65;;;1.20;;
21501;SDS011;27639;48.674;9.242;2023-12-28T06:14:43;2.50;;;1.20;;
21501;SDS011;27639;48.674;9.242;2023-12-28T06:17:09;3.67;;;1.25;;
21501;SDS011;27639;48.674;9.242;2023-12-28T06:19:34;2.72;;;1.30;;
21501;SDS011;27639;48.674;9.242;2023-12-28T06:22:00;2.92;;;1.25;;
21501;SDS011;27639;48.674;9.242;2023-12-28T06:24:26;3.45;;;1.30;;
21501;SDS011;27639;48.674;9.242;2023-12-28T06:26:51;2.63;;;1.30;;
21501;SDS011;27639;48.674;9.242;2023-12-28T06:29:17;2.85;;;1.23;;
21501;SDS011;27639;48.674;9.242;2023-12-28T06:31:42;2.75;;;1.25;;
21501;SDS011;27639;48.674;9.242;2023-12-28T06:34:08;3.00;;;1.30;;
21501;SDS011;27639;48.674;9.242;2023-12-28T06:36:33;3.75;;;1.70;;
21501;SDS011;27639;48.674;9.242;2023-12-28T06:38:59;3.40;;;1.58;;
21501;SDS011;27639;48.674;9.242;2023-12-28T06:41:25;3.20;;;1.33;;
21501;SDS011;27639;48.674;9.242;2023-12-28T06:43:51;3.00;;;1.20;;
21501;SDS011;27639;48.674;9.242;2023-12-28T06:46:17;2.85;;;1.33;;
21501;SDS011;27639;48.674;9.242;2023-12-28T06:48:43;3.35;;;1.40;;
21501;SDS011;27639;48.674;9.242;2023-12-28T06:51:09;4.53;;;1.50;;
21501;SDS011;27639;48.674;9.242;2023-12-28T06:53:42;2.33;;;1.15;;
21501;SDS011;27639;48.674;9.242;2023-12-28T06:56:08;3.25;;;1.52;;
21501;SDS011;27639;48.674;9.242;2023-12-28T06:58:34;3.67;;;1.30;;
21501;SDS011;27639;48.674;9.242;2023-12-28T07:01:02;3.35;;;1.20;;
21501;SDS011;27639;48.674;9.242;2023-12-28T07:03:28;3.63;;;1.38;;
21501;SDS011;27639;48.674;9.242;2023-12-28T07:05:57;2.75;;;1.27;;
21501;SDS011;27639;48.674;9.242;2023-12-28T07:08:23;3.60;;;1.30;;
21501;SDS011;27639;48.674;9.242;2023-12-28T07:10:49;3.95;;;1.40;;
21501;SDS011;27639;48.674;9.242;2023-12-28T07:13:14;2.90;;;1.23;;
21501;SDS011;27639;48.674;9.242;2023-12-28T07:15:40;3.83;;;1.65;;
21501;SDS011;27639;48.674;9.242;2023-12-28T07:18:05;2.85;;;1.15;;
21501;SDS011;27639;48.674;9.242;2023-12-28T07:20:31;6.70;;;1.33;;
21501;SDS011;27639;48.674;9.242;2023-12-28T07:22:57;3.75;;;1.50;;
21501;SDS011;27639;48.674;9.242;2023-12-28T07:25:22;4.80;;;1.52;;
21501;SDS011;27639;48.674;9.242;2023-12-28T07:27:48;86.88;;;12.85;;
21501;SDS011;27639;48.674;9.242;2023-12-28T07:30:13;5.15;;;2.08;;
21501;SDS011;27639;48.674;9.242;2023-12-28T07:32:41;16.38;;;3.17;;
21501;SDS011;27639;48.674;9.242;2023-12-28T07:35:07;38.72;;;5.20;;
21501;SDS011;27639;48.674;9.242;2023-12-28T07:37:33;16.08;;;3.03;;
21501;SDS011;27639;48.674;9.242;2023-12-28T07:39:59;27.83;;;4.78;;
21501;SDS011;27639;48.674;9.242;2023-12-28T07:42:26;10.10;;;2.47;;
21501;SDS011;27639;48.674;9.242;2023-12-28T07:44:51;8.50;;;2.70;;
21501;SDS011;27639;48.674;9.242;2023-12-28T07:47:17;11.02;;;2.58;;
21501;SDS011;27639;48.674;9.242;2023-12-28T07:49:42;6.47;;;2.08;;
21501;SDS011;27639;48.674;9.242;2023-12-28T07:52:08;5.40;;;2.20;;
21501;SDS011;27639;48.674;9.242;2023-12-28T07:54:33;4.40;;;2.08;;
21501;SDS011;27639;48.674;9.242;2023-12-28T07:56:59;5.20;;;2.05;;
21501;SDS011;27639;48.674;9.242;2023-12-28T07:59:25;11.38;;;2.40;;
21501;SDS011;27639;48.674;9.242;2023-12-28T08:01:51;13.57;;;3.47;;
21501;SDS011;27639;48.674;9.242;2023-12-28T08:04:16;5.05;;;2.17;;
21501;SDS011;27639;48.674;9.242;2023-12-28T08:06:42;6.40;;;2.20;;
21501;SDS011;27639;48.674;9.242;2023-12-28T08:09:07;17.75;;;3.88;;
21501;SDS011;27639;48.674;9.242;2023-12-28T08:11:33;7.18;;;2.17;;
21501;SDS011;27639;48.674;9.242;2023-12-28T08:13:59;6.53;;;2.00;;
21501;SDS011;27639;48.674;9.242;2023-12-28T08:16:25;6.25;;;2.10;;
21501;SDS011;27639;48.674;9.242;2023-12-28T08:18:51;4.82;;;2.63;;
21501;SDS011;27639;48.674;9.242;2023-12-28T08:21:17;5.78;;;2.00;;
21501;SDS011;27639;48.674;9.242;2023-12-28T08:23:43;4.93;;;2.30;;
21501;SDS011;27639;48.674;9.242;2023-12-28T08:26:09;4.55;;;2.05;;
21501;SDS011;27639;48.674;9.242;2023-12-28T08:28:35;4.03;;;2.15;;
21501;SDS011;27639;48.674;9.242;2023-12-28T08:31:01;4.30;;;2.33;;
21501;SDS011;27639;48.674;9.242;2023-12-28T08:33:27;7.40;;;4.72;;
21501;SDS011;27639;48.674;9.242;2023-12-28T08:35:52;6.85;;;3.72;;
21501;SDS011;27639;48.674;9.242;2023-12-28T08:38:18;9.20;;;3.40;;
21501;SDS011;27639;48.674;9.242;2023-12-28T08:40:43;7.07;;;3.85;;
21501;SDS011;27639;48.674;9.242;2023-12-28T08:43:09;6.45;;;3.65;;
21501;SDS011;27639;48.674;9.242;2023-12-28T08:45:35;8.18;;;4.00;;
21501;SDS011;27639;48.674;9.242;2023-12-28T08:48:01;6.75;;;3.33;;
21501;SDS011;27639;48.674;9.242;2023-12-28T08:50:27;5.25;;;3.33;;
21501;SDS011;27639;48.674;9.242;2023-12-28T08:52:52;7.82;;;3.70;;
21501;SDS011;27639;48.674;9.242;2023-12-28T08:55:18;118.57;;;18.17;;
21501;SDS011;27639;48.674;9.242;2023-12-28T08:57:43;14.40;;;5.75;;
21501;SDS011;27639;48.674;9.242;2023-12-28T09:00:09;11.57;;;3.83;;
21501;SDS011;27639;48.674;9.242;2023-12-28T09:02:35;6.55;;;3.60;;
21501;SDS011;27639;48.674;9.242;2023-12-28T09:05:02;7.53;;;4.30;;
21501;SDS011;27639;48.674;9.242;2023-12-28T09:07:28;6.85;;;3.55;;
21501;SDS011;27639;48.674;9.242;2023-12-28T09:09:53;14.70;;;5.35;;
21501;SDS011;27639;48.674;9.242;2023-12-28T09:12:19;19.27;;;7.40;;
21501;SDS011;27639;48.674;9.242;2023-12-28T09:14:44;13.02;;;5.03;;
21501;SDS011;27639;48.674;9.242;2023-12-28T09:17:11;8.02;;;3.47;;
21501;SDS011;27639;48.674;9.242;2023-12-28T09:19:36;15.13;;;5.50;;
21501;SDS011;27639;48.674;9.242;2023-12-28T09:22:03;11.75;;;5.57;;
21501;SDS011;27639;48.674;9.242;2023-12-28T09:24:28;12.68;;;5.68;;
21501;SDS011;27639;48.674;9.242;2023-12-28T09:26:54;10.68;;;6.03;;
21501;SDS011;27639;48.674;9.242;2023-12-28T09:29:20;11.95;;;5.90;;
21501;SDS011;27639;48.674;9.242;2023-12-28T09:31:45;9.88;;;5.47;;
21501;SDS011;27639;48.674;9.242;2023-12-28T09:34:11;8.65;;;4.53;;
21501;SDS011;27639;48.674;9.242;2023-12-28T09:36:37;9.30;;;4.65;;
21501;SDS011;27639;48.674;9.242;2023-12-28T09:39:02;8.23;;;4.43;;
21501;SDS011;27639;48.674;9.242;2023-12-28T09:41:29;6.90;;;3.70;;
21501;SDS011;27639;48.674;9.242;2023-12-28T09:44:00;6.72;;;4.13;;
21501;SDS011;27639;48.674;9.242;2023-12-28T09:46:33;17.15;;;5.10;;
21501;SDS011;27639;48.674;9.242;2023-12-28T09:49:00;10.63;;;5.30;;
21501;SDS011;27639;48.674;9.242;2023-12-28T09:51:27;9.27;;;5.20;;
21501;SDS011;27639;48.674;9.242;2023-12-28T09:53:53;8.38;;;5.05;;
21501;SDS011;27639;48.674;9.242;2023-12-28T09:56:18;8.02;;;5.63;;
21501;SDS011;27639;48.674;9.242;2023-12-28T09:58:44;11.85;;;6.18;;
21501;SDS011;27639;48.674;9.242;2023-12-28T10:01:14;12.57;;;6.93;;
21501;SDS011;27639;48.674;9.242;2023-12-28T10:03:40;6.05;;;3.10;;
21501;SDS011;27639;48.674;9.242;2023-12-28T10:06:06;4.80;;;2.30;;
21501;SDS011;27639;48.674;9.242;2023-12-28T10:08:47;3.45;;;1.60;;
21501;SDS011;27639;48.674;9.242;2023-12-28T10:11:17;3.60;;;1.30;;
21501;SDS011;27639;48.674;9.242;2023-12-28T10:13:44;4.68;;;1.70;;
21501;SDS011;27639;48.674;9.242;2023-12-28T10:16:10;3.40;;;1.55;;
21501;SDS011;27639;48.674;9.242;2023-12-28T10:18:40;4.35;;;1.70;;
21501;SDS011;27639;48.674;9.242;2023-12-28T10:21:08;3.53;;;1.33;;
21501;SDS011;27639;48.674;9.242;2023-12-28T10:23:34;3.88;;;1.40;;
21501;SDS011;27639;48.674;9.242;2023-12-28T10:26:00;3.53;;;1.50;;
21501;SDS011;27639;48.674;9.242;2023-12-28T10:28:26;4.53;;;1.60;;
21501;SDS011;27639;48.674;9.242;2023-12-28T10:30:55;3.95;;;1.67;;
21501;SDS011;27639;48.674;9.242;2023-12-28T10:33:21;3.08;;;1.58;;
21501;SDS011;27639;48.674;9.242;2023-12-28T10:35:48;3.78;;;2.00;;
21501;SDS011;27639;48.674;9.242;2023-12-28T10:38:15;3.30;;;1.65;;
21501;SDS011;27639;48.674;9.242;2023-12-28T10:40:42;5.53;;;1.70;;
21501;SDS011;27639;48.674;9.242;2023-12-28T10:43:10;3.75;;;1.42;;
21501;SDS011;27639;48.674;9.242;2023-12-28T10:45:39;4.35;;;1.95;;
21501;SDS011;27639;48.674;9.242;2023-12-28T10:48:11;4.35;;;1.80;;
21501;SDS011;27639;48.674;9.242;2023-12-28T10:50:48;5.07;;;2.10;;
21501;SDS011;27639;48.674;9.242;2023-12-28T11:01:11;3.88;;;1.52;;
21501;SDS011;27639;48.674;9.242;2023-12-28T11:03:41;3.05;;;1.33;;
21501;SDS011;27639;48.674;9.242;2023-12-28T11:06:09;3.17;;;1.27;;
21501;SDS011;27639;48.674;9.242;2023-12-28T11:08:36;4.45;;;1.40;;
21501;SDS011;27639;48.674;9.242;2023-12-28T11:11:05;3.88;;;1.60;;
21501;SDS011;27639;48.674;9.242;2023-12-28T11:13:32;3.20;;;1.60;;
21501;SDS011;27639;48.674;9.242;2023-12-28T11:16:00;3.47;;;1.65;;
21501;SDS011;27639;48.674;9.242;2023-12-28T11:18:26;3.88;;;1.23;;
21501;SDS011;27639;48.674;9.242;2023-12-28T11:20:53;3.90;;;1.70;;
21501;SDS011;27639;48.674;9.242;2023-12-28T11:23:19;4.65;;;1.38;;
21501;SDS011;27639;48.674;9.242;2023-12-28T11:25:45;3.05;;;1.40;;
21501;SDS011;27639;48.674;9.242;2023-12-28T11:28:11;2.85;;;1.33;;
21501;SDS011;27639;48.674;9.242;2023-12-28T11:30:38;3.00;;;1.30;;
21501;SDS011;27639;48.674;9.242;2023-12-28T11:33:06;3.45;;;1.55;;
21501;SDS011;27639;48.674;9.242;2023-12-28T11:35:36;3.10;;;1.40;;
21501;SDS011;27639;48.674;9.242;2023-12-28T11:38:03;3.78;;;1.33;;
21501;SDS011;27639;48.674;9.242;2023-12-28T11:40:40;2.92;;;1.40;;
21501;SDS011;27639;48.674;9.242;2023-12-28T11:43:14;2.72;;;1.30;;
21501;SDS011;27639;48.674;9.242;2023-12-28T11:45:50;2.90;;;1.20;;
21501;SDS011;27639;48.674;9.242;2023-12-28T11:48:22;4.40;;;1.20;;
21501;SDS011;27639;48.674;9.242;2023-12-28T11:50:58;3.22;;;1.25;;
21501;SDS011;27639;48.674;9.242;2023-12-28T11:53:25;3.03;;;1.23;;
21501;SDS011;27639;48.674;9.242;2023-12-28T11:55:51;3.38;;;1.40;;
21501;SDS011;27639;48.674;9.242;2023-12-28T11:58:17;3.42;;;1.70;;
21501;SDS011;27639;48.674;9.242;2023-12-28T12:00:43;4.70;;;2.20;;
21501;SDS011;27639;48.674;9.242;2023-12-28T12:03:10;4.95;;;2.67;;
21501;SDS011;27639;48.674;9.242;2023-12-28T12:05:36;6.85;;;2.83;;
21501;SDS011;27639;48.674;9.242;2023-12-28T12:08:02;5.00;;;2.83;;
21501;SDS011;27639;48.674;9.242;2023-12-28T12:10:28;4.10;;;2.28;;
21501;SDS011;27639;48.674;9.242;2023-12-28T12:12:54;4.22;;;1.88;;
21501;SDS011;27639;48.674;9.242;2023-12-28T12:15:19;6.22;;;2.00;;
21501;SDS011;27639;48.674;9.242;2023-12-28T12:17:45;6.28;;;1.95;;
21501;SDS011;27639;48.674;9.242;2023-12-28T12:20:11;6.28;;;2.30;;
21501;SDS011;27639;48.674;9.242;2023-12-28T12:22:37;5.75;;;2.40;;
21501;SDS011;27639;48.674;9.242;2023-12-28T12:25:04;4.25;;;1.77;;
21501;SDS011;27639;48.674;9.242;2023-12-28T12:27:31;4.05;;;1.80;;
21501;SDS011;27639;48.674;9.242;2023-12-28T12:29:57;3.78;;;1.60;;
21501;SDS011;27639;48.674;9.242;2023-12-28T12:32:23;4.18;;;1.60;;
21501;SDS011;27639;48.674;9.242;2023-12-28T12:34:49;3.08;;;1.30;;
21501;SDS011;27639;48.674;9.242;2023-12-28T12:37:16;3.35;;;1.58;;
21501;SDS011;27639;48.674;9.242;2023-12-28T12:39:42;2.88;;;1.48;;
21501;SDS011;27639;48.674;9.242;2023-12-28T12:42:12;4.07;;;1.90;;
21501;SDS011;27639;48.674;9.242;2023-12-28T12:44:38;3.78;;;2.20;;
21501;SDS011;27639;48.674;9.242;2023-12-28T12:47:04;3.28;;;1.67;;
21501;SDS011;27639;48.674;9.242;2023-12-28T12:49:29;3.83;;;1.80;;
21501;SDS011;27639;48.674;9.242;2023-12-28T12:51:56;4.43;;;2.08;;
21501;SDS011;27639;48.674;9.242;2023-12-28T12:54:22;3.60;;;1.70;;
21501;SDS011;27639;48.674;9.242;2023-12-28T12:56:47;3.70;;;2.10;;
21501;SDS011;27639;48.674;9.242;2023-12-28T12:59:15;4.28;;;1.98;;
21501;SDS011;27639;48.674;9.242;2023-12-28T13:01:43;4.82;;;2.20;;
21501;SDS011;27639;48.674;9.242;2023-12-28T13:04:09;3.55;;;1.98;;
21501;SDS011;27639;48.674;9.242;2023-12-28T13:06:36;4.80;;;1.85;;
21501;SDS011;27639;48.674;9.242;2023-12-28T13:09:02;3.92;;;1.70;;
21501;SDS011;27639;48.674;9.242;2023-12-28T13:11:28;4.00;;;1.48;;
21501;SDS011;27639;48.674;9.242;2023-12-28T13:13:53;2.58;;;1.35;;
21501;SDS011;27639;48.674;9.242;2023-12-28T13:16:19;3.28;;;1.60;;
21501;SDS011;27639;48.674;9.242;2023-12-28T13:18:44;3.10;;;1.60;;
21501;SDS011;27639;48.674;9.242;2023-12-28T13:21:10;4.18;;;2.25;;
21501;SDS011;27639;48.674;9.242;2023-12-28T13:23:35;3.92;;;1.90;;
21501;SDS011;27639;48.674;9.242;2023-12-28T13:26:01;3.75;;;2.00;;
21501;SDS011;27639;48.674;9.242;2023-12-28T13:28:27;3.65;;;1.88;;
21501;SDS011;27639;48.674;9.242;2023-12-28T13:30:52;3.95;;;1.60;;
21501;SDS011;27639;48.674;9.242;2023-12-28T13:33:20;3.35;;;1.30;;
21501;SDS011;27639;48.674;9.242;2023-12-28T13:35:46;3.53;;;1.75;;
21501;SDS011;27639;48.674;9.242;2023-12-28T13:38:12;4.18;;;1.75;;
21501;SDS011;27639;48.674;9.242;2023-12-28T13:40:37;3.10;;;1.60;;
21501;SDS011;27639;48.674;9.242;2023-12-28T13:43:03;3.10;;;1.40;;
21501;SDS011;27639;48.674;9.242;2023-12-28T13:45:29;4.25;;;2.17;;
21501;SDS011;27639;48.674;9.242;2023-12-28T13:47:54;4.90;;;2.28;;
21501;SDS011;27639;48.674;9.242;2023-12-28T13:50:20;3.67;;;1.95;;
21501;SDS011;27639;48.674;9.242;2023-12-28T13:52:46;3.85;;;2.15;;
21501;SDS011;27639;48.674;9.242;2023-12-28T13:55:11;4.93;;;2.20;;
21501;SDS011;27639;48.674;9.242;2023-12-28T13:57:37;4.05;;;1.83;;
21501;SDS011;27639;48.674;9.242;2023-12-28T14:00:03;4.75;;;2.30;;
21501;SDS011;27639;48.674;9.242;2023-12-28T14:02:30;3.45;;;1.73;;
21501;SDS011;27639;48.674;9.242;2023-12-28T14:04:56;4.15;;;2.20;;
21501;SDS011;27639;48.674;9.242;2023-12-28T14:07:24;6.47;;;3.55;;
21501;SDS011;27639;48.674;9.242;2023-12-28T14:09:50;5.10;;;2.63;;
21501;SDS011;27639;48.674;9.242;2023-12-28T14:12:16;5.75;;;4.28;;
21501;SDS011;27639;48.674;9.242;2023-12-28T14:14:42;4.13;;;2.10;;
21501;SDS011;27639;48.674;9.242;2023-12-28T14:17:08;3.58;;;1.80;;
21501;SDS011;27639;48.674;9.242;2023-12-28T14:19:33;3.42;;;1.70;;
21501;SDS011;27639;48.674;9.242;2023-12-28T14:21:59;3.50;;;1.70;;
21501;SDS011;27639;48.674;9.242;2023-12-28T14:24:25;3.72;;;1.92;;
21501;SDS011;27639;48.674;9.242;2023-12-28T14:26:54;3.88;;;2.10;;
21501;SDS011;27639;48.674;9.242;2023-12-28T14:29:21;4.80;;;2.30;;
21501;SDS011;27639;48.674;9.242;2023-12-28T14:31:47;4.32;;;2.13;;
21501;SDS011;27639;48.674;9.242;2023-12-28T14:34:13;5.07;;;2.17;;
21501;SDS011;27639;48.674;9.242;2023-12-28T14:36:39;4.00;;;2.25;;
21501;SDS011;27639;48.674;9.242;2023-12-28T14:39:05;5.35;;;2.67;;
21501;SDS011;27639;48.674;9.242;2023-12-28T14:41:36;5.28;;;2.83;;
21501;SDS011;27639;48.674;9.242;2023-12-28T14:44:02;5.63;;;3.13;;
21501;SDS011;27639;48.674;9.242;2023-12-28T14:46:29;6.00;;;3.30;;
21501;SDS011;27639;48.674;9.242;2023-12-28T14:48:55;7.22;;;4.13;;
21501;SDS011;27639;48.674;9.242;2023-12-28T14:51:22;5.90;;;3.58;;
21501;SDS011;27639;48.674;9.242;2023-12-28T14:53:48;6.03;;;3.90;;
21501;SDS011;27639;48.674;9.242;2023-12-28T14:56:13;6.03;;;3.22;;